createdAt,value
2023-03-03T00:01:22.930Z,407
2023-03-03T00:02:22.231Z,403
2023-03-03T00:03:22.935Z,401
2023-03-03T00:04:22.158Z,405
2023-03-03T00:05:21.745Z,405
2023-03-03T00:06:21.727Z,420
2023-03-03T00:07:21.832Z,405
2023-03-03T00:09:21.867Z,417
2023-03-03T00:10:36.554Z,418
2023-03-03T00:11:21.684Z,413
2023-03-03T00:12:40.857Z,409
2023-03-03T00:13:22.112Z,402
2023-03-03T00:15:22.111Z,403
2023-03-03T00:16:21.818Z,405
2023-03-03T00:18:21.275Z,411
2023-03-03T00:19:21.932Z,408
2023-03-03T00:21:21.927Z,404
2023-03-03T00:22:22.334Z,400
2023-03-03T00:23:21.676Z,403
2023-03-03T00:25:21.624Z,411
2023-03-03T00:26:21.463Z,415
2023-03-03T00:27:21.716Z,423
2023-03-03T00:28:21.575Z,411
2023-03-03T00:29:22.335Z,404
2023-03-03T00:30:22.239Z,412
2023-03-03T00:31:21.939Z,416
2023-03-03T00:32:21.906Z,412
2023-03-03T00:34:21.633Z,421
2023-03-03T00:36:21.536Z,403
2023-03-03T00:37:22.046Z,416
2023-03-03T00:38:21.690Z,411
2023-03-03T00:39:22.029Z,410
2023-03-03T00:40:21.436Z,414
2023-03-03T00:42:21.392Z,430
2023-03-03T00:43:21.682Z,415
2023-03-03T00:44:21.201Z,419
2023-03-03T00:45:21.778Z,421
2023-03-03T00:46:21.908Z,424
2023-03-03T00:47:21.253Z,419
2023-03-03T00:48:21.778Z,420
2023-03-03T00:49:21.868Z,427
2023-03-03T00:50:21.671Z,417
2023-03-03T00:51:21.587Z,413
2023-03-03T00:52:21.578Z,408
2023-03-03T00:54:21.486Z,406
2023-03-03T00:55:21.636Z,409
2023-03-03T00:56:21.444Z,410
2023-03-03T00:57:22.127Z,418
2023-03-03T00:58:21.699Z,414
2023-03-03T00:59:21.698Z,400
2023-03-03T01:00:21.848Z,401
2023-03-03T01:01:24.128Z,404
2023-03-03T01:02:22.572Z,415
2023-03-03T01:03:21.747Z,420
2023-03-03T01:04:20.977Z,429
2023-03-03T01:05:21.701Z,419
2023-03-03T01:06:21.250Z,418
2023-03-03T01:07:21.644Z,422
2023-03-03T01:08:22.059Z,411
2023-03-03T01:09:21.216Z,405
2023-03-03T01:10:21.616Z,418
2023-03-03T01:11:21.746Z,417
2023-03-03T01:12:21.432Z,425
2023-03-03T01:14:22.080Z,422
2023-03-03T01:15:21.926Z,412
2023-03-03T01:17:20.872Z,413
2023-03-03T01:19:21.666Z,428
2023-03-03T01:20:22.098Z,423
2023-03-03T01:21:21.570Z,420
2023-03-03T01:22:21.663Z,426
2023-03-03T01:23:21.677Z,423
2023-03-03T01:24:21.797Z,424
2023-03-03T01:25:21.626Z,422
2023-03-03T01:26:21.551Z,421
2023-03-03T01:27:21.612Z,435
2023-03-03T01:28:21.548Z,433
2023-03-03T01:29:21.894Z,424
2023-03-03T01:30:21.898Z,429
2023-03-03T01:31:21.249Z,420
2023-03-03T01:32:22.190Z,432
2023-03-03T01:33:21.388Z,422
2023-03-03T01:34:21.857Z,428
2023-03-03T01:35:22.420Z,430
2023-03-03T01:36:21.817Z,431
2023-03-03T01:37:22.238Z,435
2023-03-03T01:38:21.302Z,429
2023-03-03T01:39:22.017Z,426
2023-03-03T01:40:22.134Z,418
2023-03-03T01:41:21.499Z,405
2023-03-03T01:42:21.832Z,416
2023-03-03T01:43:21.001Z,420
2023-03-03T01:44:21.665Z,425
2023-03-03T01:45:22.339Z,430
2023-03-03T01:46:21.648Z,424
2023-03-03T01:47:21.856Z,426
2023-03-03T01:48:21.444Z,435
2023-03-03T01:49:21.656Z,431
2023-03-03T01:51:21.864Z,423
2023-03-03T01:52:21.420Z,412
2023-03-03T01:53:20.859Z,414
2023-03-03T01:54:21.222Z,417
2023-03-03T01:55:21.662Z,408
2023-03-03T01:56:21.769Z,409
2023-03-03T01:57:21.880Z,406
2023-03-03T01:58:21.590Z,405
2023-03-03T02:00:22.812Z,399
2023-03-03T02:01:22.695Z,409
2023-03-03T02:02:21.908Z,410
2023-03-03T02:03:22.370Z,409
2023-03-03T02:04:21.727Z,408
2023-03-03T02:05:22.622Z,403
2023-03-03T02:06:21.558Z,406
2023-03-03T02:07:21.901Z,413
2023-03-03T02:09:22.316Z,407
2023-03-03T02:10:21.910Z,416
2023-03-03T02:11:21.991Z,413
2023-03-03T02:12:21.742Z,407
2023-03-03T02:14:21.690Z,414
2023-03-03T02:15:22.072Z,419
2023-03-03T02:16:22.259Z,417
2023-03-03T02:17:21.853Z,418
2023-03-03T02:18:22.087Z,416
2023-03-03T02:19:21.631Z,421
2023-03-03T02:20:22.612Z,425
2023-03-03T02:21:21.894Z,420
2023-03-03T02:22:21.605Z,418
2023-03-03T02:23:22.601Z,410
2023-03-03T02:24:21.920Z,406
2023-03-03T02:25:21.881Z,407
2023-03-03T02:26:21.802Z,410
2023-03-03T02:27:22.160Z,414
2023-03-03T02:28:21.561Z,422
2023-03-03T02:29:22.174Z,423
2023-03-03T02:30:22.152Z,409
2023-03-03T02:31:21.736Z,416
2023-03-03T02:32:21.965Z,419
2023-03-03T02:33:21.620Z,420
2023-03-03T02:34:21.198Z,417
2023-03-03T02:35:21.700Z,420
2023-03-03T02:36:21.919Z,418
2023-03-03T02:37:21.583Z,409
2023-03-03T02:38:21.291Z,417
2023-03-03T02:40:21.179Z,420
2023-03-03T02:41:21.219Z,423
2023-03-03T02:42:21.264Z,425
2023-03-03T02:43:21.123Z,417
2023-03-03T02:44:21.634Z,419
2023-03-03T02:45:21.891Z,436
2023-03-03T02:46:21.107Z,421
2023-03-03T02:47:20.987Z,416
2023-03-03T02:48:21.534Z,415
2023-03-03T02:49:21.455Z,413
2023-03-03T02:50:21.850Z,416
2023-03-03T02:51:21.699Z,412
2023-03-03T02:52:21.659Z,424
2023-03-03T02:53:21.946Z,423
2023-03-03T02:55:21.519Z,409
2023-03-03T02:56:21.877Z,405
2023-03-03T02:57:21.269Z,400
2023-03-03T02:58:21.409Z,411
2023-03-03T02:59:21.586Z,417
2023-03-03T03:00:22.965Z,414
2023-03-03T03:01:22.396Z,410
2023-03-03T03:02:21.551Z,411
2023-03-03T03:03:22.009Z,412
2023-03-03T03:04:22.349Z,397
2023-03-03T03:05:21.473Z,400
2023-03-03T03:06:21.038Z,401
2023-03-03T03:07:21.341Z,400
2023-03-03T03:08:21.440Z,396
2023-03-03T03:09:21.563Z,397
2023-03-03T03:10:21.811Z,387
2023-03-03T03:11:21.277Z,389
2023-03-03T03:12:22.127Z,396
2023-03-03T03:13:21.595Z,394
2023-03-03T03:14:22.045Z,399
2023-03-03T03:15:21.954Z,402
2023-03-03T03:16:22.193Z,401
2023-03-03T03:17:21.785Z,400
2023-03-03T03:18:21.454Z,403
2023-03-03T03:20:21.436Z,407
2023-03-03T03:21:22.289Z,399
2023-03-03T03:22:21.614Z,402
2023-03-03T03:23:21.402Z,405
2023-03-03T03:24:21.789Z,400
2023-03-03T03:25:22.347Z,395
2023-03-03T03:26:21.909Z,401
2023-03-03T03:27:21.213Z,403
2023-03-03T03:28:21.038Z,397
2023-03-03T03:29:20.933Z,402
2023-03-03T03:30:21.050Z,411
2023-03-03T03:31:21.394Z,407
2023-03-03T03:32:21.633Z,398
2023-03-03T03:33:21.593Z,403
2023-03-03T03:34:22.067Z,406
2023-03-03T03:35:21.756Z,397
2023-03-03T03:36:21.493Z,394
2023-03-03T03:37:21.943Z,402
2023-03-03T03:38:21.177Z,393
2023-03-03T03:39:21.817Z,391
2023-03-03T03:41:21.753Z,397
2023-03-03T03:42:21.580Z,401
2023-03-03T03:43:21.761Z,394
2023-03-03T03:44:21.419Z,393
2023-03-03T03:45:22.032Z,399
2023-03-03T03:46:21.462Z,390
2023-03-03T03:47:21.980Z,401
2023-03-03T03:48:21.851Z,395
2023-03-03T03:49:21.172Z,385
2023-03-03T03:50:22.100Z,390
2023-03-03T03:51:21.884Z,393
2023-03-03T03:52:21.429Z,396
2023-03-03T03:53:22.167Z,392
2023-03-03T03:54:21.624Z,385
2023-03-03T03:55:22.174Z,389
2023-03-03T03:56:21.759Z,401
2023-03-03T03:57:22.209Z,400
2023-03-03T03:59:21.898Z,393
2023-03-03T04:00:23.120Z,403
2023-03-03T04:01:21.808Z,404
2023-03-03T04:02:22.175Z,392
2023-03-03T04:03:22.281Z,395
2023-03-03T04:04:21.636Z,393
2023-03-03T04:05:22.219Z,394
2023-03-03T04:06:21.672Z,391
2023-03-03T04:07:22.244Z,388
2023-03-03T04:08:21.801Z,396
2023-03-03T04:10:21.953Z,399
2023-03-03T04:11:22.514Z,400
2023-03-03T04:12:22.114Z,395
2023-03-03T04:13:21.810Z,390
2023-03-03T04:14:22.044Z,394
2023-03-03T04:15:21.808Z,395
2023-03-03T04:16:21.944Z,391
2023-03-03T04:17:21.511Z,392
2023-03-03T04:18:21.763Z,397
2023-03-03T04:19:21.946Z,396
2023-03-03T04:20:21.854Z,395
2023-03-03T04:21:22.232Z,394
2023-03-03T04:22:21.646Z,399
2023-03-03T04:23:21.349Z,405
2023-03-03T04:24:21.880Z,395
2023-03-03T04:25:21.866Z,392
2023-03-03T04:26:22.072Z,402
2023-03-03T04:27:21.246Z,397
2023-03-03T04:28:21.233Z,400
2023-03-03T04:29:21.445Z,403
2023-03-03T04:30:22.126Z,408
2023-03-03T04:31:22.594Z,402
2023-03-03T04:32:22.065Z,390
2023-03-03T04:33:21.799Z,393
2023-03-03T04:35:21.578Z,391
2023-03-03T04:36:21.123Z,393
2023-03-03T04:37:21.602Z,395
2023-03-03T04:38:21.520Z,394
2023-03-03T04:40:21.769Z,398
2023-03-03T04:41:21.623Z,392
2023-03-03T04:42:21.685Z,387
2023-03-03T04:43:21.916Z,392
2023-03-03T04:44:21.589Z,397
2023-03-03T04:45:22.732Z,398
2023-03-03T04:46:21.466Z,401
2023-03-03T04:47:21.877Z,396
2023-03-03T04:48:22.012Z,395
2023-03-03T04:49:21.862Z,389
2023-03-03T04:50:21.867Z,383
2023-03-03T04:51:22.364Z,389
2023-03-03T04:52:21.942Z,392
2023-03-03T04:53:21.647Z,390
2023-03-03T04:54:22.067Z,384
2023-03-03T04:55:21.672Z,393
2023-03-03T04:57:21.798Z,396
2023-03-03T04:58:21.169Z,392
2023-03-03T04:59:21.692Z,389
2023-03-03T05:00:23.215Z,390
2023-03-03T05:01:21.809Z,375
2023-03-03T05:02:21.913Z,384
2023-03-03T05:03:20.915Z,391
2023-03-03T05:04:22.180Z,394
2023-03-03T05:05:22.063Z,398
2023-03-03T05:06:21.857Z,393
2023-03-03T05:07:21.642Z,385
2023-03-03T05:08:21.432Z,389
2023-03-03T05:09:21.790Z,393
2023-03-03T05:10:22.489Z,384
2023-03-03T05:11:21.762Z,383
2023-03-03T05:12:21.665Z,382
2023-03-03T05:13:21.372Z,384
2023-03-03T05:14:21.737Z,385
2023-03-03T05:15:22.064Z,386
2023-03-03T05:16:21.675Z,389
2023-03-03T05:17:22.115Z,388
2023-03-03T05:18:21.676Z,386
2023-03-03T05:19:21.669Z,391
2023-03-03T05:20:21.810Z,387
2023-03-03T05:21:21.379Z,386
2023-03-03T05:22:21.391Z,387
2023-03-03T05:23:21.703Z,397
2023-03-03T05:24:21.955Z,393
2023-03-03T05:25:22.228Z,384
2023-03-03T05:27:21.705Z,391
2023-03-03T05:28:22.192Z,389
2023-03-03T05:29:22.214Z,393
2023-03-03T05:30:22.505Z,392
2023-03-03T05:31:22.134Z,386
2023-03-03T05:32:22.165Z,381
2023-03-03T05:33:21.570Z,385
2023-03-03T05:34:22.330Z,384
2023-03-03T05:36:22.181Z,389
2023-03-03T05:37:21.720Z,383
2023-03-03T05:39:21.802Z,384
2023-03-03T05:40:21.943Z,389
2023-03-03T05:41:21.398Z,393
2023-03-03T05:42:22.219Z,386
2023-03-03T05:43:21.830Z,388
2023-03-03T05:45:21.702Z,387
2023-03-03T05:46:22.120Z,391
2023-03-03T05:47:21.515Z,392
2023-03-03T05:48:21.521Z,394
2023-03-03T05:49:21.954Z,386
2023-03-03T05:50:21.880Z,387
2023-03-03T05:51:22.013Z,388
2023-03-03T05:52:21.843Z,384
2023-03-03T05:53:21.336Z,383
2023-03-03T05:54:21.408Z,385
2023-03-03T05:55:21.870Z,377
2023-03-03T05:56:21.661Z,382
2023-03-03T05:58:21.947Z,393
2023-03-03T05:59:21.589Z,388
2023-03-03T06:00:22.791Z,392
2023-03-03T06:01:22.147Z,385
2023-03-03T06:02:22.194Z,388
2023-03-03T06:03:22.133Z,385
2023-03-03T06:04:22.203Z,392
2023-03-03T06:05:22.394Z,395
2023-03-03T06:06:21.939Z,384
2023-03-03T06:08:21.263Z,382
2023-03-03T06:09:21.785Z,390
2023-03-03T06:10:21.627Z,394
2023-03-03T06:11:21.972Z,388
2023-03-03T06:13:22.284Z,391
2023-03-03T06:15:21.648Z,397
2023-03-03T06:16:22.190Z,402
2023-03-03T06:17:21.935Z,403
2023-03-03T06:18:21.839Z,399
2023-03-03T06:19:21.431Z,382
2023-03-03T06:20:22.591Z,381
2023-03-03T06:21:22.673Z,388
2023-03-03T06:22:22.071Z,383
2023-03-03T06:23:21.992Z,387
2023-03-03T06:24:21.948Z,394
2023-03-03T06:25:21.448Z,396
2023-03-03T06:26:22.029Z,399
2023-03-03T06:27:21.710Z,394
2023-03-03T06:28:21.753Z,386
2023-03-03T06:29:21.667Z,387
2023-03-03T06:30:22.033Z,386
2023-03-03T06:31:21.838Z,383
2023-03-03T06:32:21.761Z,379
2023-03-03T06:34:21.857Z,391
2023-03-03T06:35:21.509Z,384
2023-03-03T06:36:21.864Z,385
2023-03-03T06:37:21.631Z,393
2023-03-03T06:38:21.363Z,395
2023-03-03T06:41:21.526Z,392
2023-03-03T06:42:22.048Z,387
2023-03-03T06:43:21.658Z,388
2023-03-03T06:44:21.770Z,384
2023-03-03T06:45:22.504Z,381
2023-03-03T06:46:21.980Z,375
2023-03-03T06:47:21.298Z,377
2023-03-03T06:48:21.733Z,382
2023-03-03T06:50:22.015Z,396
2023-03-03T06:51:22.497Z,395
2023-03-03T06:52:21.449Z,404
2023-03-03T06:55:22.365Z,401
2023-03-03T06:56:21.916Z,386
2023-03-03T06:57:21.733Z,391
2023-03-03T06:58:21.991Z,400
2023-03-03T07:00:24.003Z,398
2023-03-03T07:01:23.132Z,388
2023-03-03T07:02:22.185Z,378
2023-03-03T07:03:29.499Z,389
2023-03-03T07:04:22.395Z,395
2023-03-03T07:05:21.817Z,392
2023-03-03T07:06:22.417Z,391
2023-03-03T07:07:22.081Z,393
2023-03-03T07:08:22.406Z,386
2023-03-03T07:09:21.987Z,385
2023-03-03T07:10:22.158Z,386
2023-03-03T07:11:21.437Z,389
2023-03-03T07:13:21.402Z,386
2023-03-03T07:14:21.957Z,384
2023-03-03T07:15:22.300Z,394
2023-03-03T07:16:22.108Z,391
2023-03-03T07:17:22.099Z,378
2023-03-03T07:18:21.062Z,380
2023-03-03T07:19:22.058Z,386
2023-03-03T07:20:21.445Z,384
2023-03-03T07:21:21.891Z,392
2023-03-03T07:22:21.984Z,385
2023-03-03T07:23:21.559Z,387
2023-03-03T07:24:21.702Z,394
2023-03-03T07:25:22.454Z,400
2023-03-03T07:26:21.757Z,398
2023-03-03T07:27:21.431Z,389
2023-03-03T07:28:21.762Z,386
2023-03-03T07:29:22.259Z,381
2023-03-03T07:30:21.498Z,380
2023-03-03T07:31:21.225Z,382
2023-03-03T07:32:22.116Z,396
2023-03-03T07:33:21.632Z,391
2023-03-03T07:34:21.269Z,393
2023-03-03T07:35:22.178Z,391
2023-03-03T07:36:21.582Z,387
2023-03-03T07:37:21.322Z,389
2023-03-03T07:38:21.468Z,381
2023-03-03T07:39:22.064Z,393
2023-03-03T07:41:21.555Z,394
2023-03-03T07:42:21.918Z,386
2023-03-03T07:43:22.105Z,383
2023-03-03T07:44:21.916Z,381
2023-03-03T07:45:21.983Z,391
2023-03-03T07:46:22.562Z,388
2023-03-03T07:47:21.529Z,393
2023-03-03T07:48:21.795Z,392
2023-03-03T07:50:22.516Z,389
2023-03-03T07:51:21.501Z,390
2023-03-03T07:52:22.089Z,397
2023-03-03T07:53:22.123Z,382
2023-03-03T07:54:21.385Z,385
2023-03-03T07:55:22.113Z,389
2023-03-03T07:56:21.986Z,393
2023-03-03T07:57:21.778Z,388
2023-03-03T07:58:21.446Z,389
2023-03-03T07:59:22.090Z,387
2023-03-03T08:00:22.582Z,390
2023-03-03T08:01:22.233Z,377
2023-03-03T08:02:22.358Z,391
2023-03-03T08:03:22.188Z,396
2023-03-03T08:04:22.157Z,390
2023-03-03T08:05:22.396Z,394
2023-03-03T08:06:21.435Z,399
2023-03-03T08:07:22.387Z,387
2023-03-03T08:08:22.334Z,390
2023-03-03T08:10:22.351Z,394
2023-03-03T08:11:22.322Z,392
2023-03-03T08:12:22.321Z,389
2023-03-03T08:13:21.906Z,391
2023-03-03T08:14:21.409Z,400
2023-03-03T08:15:22.045Z,397
2023-03-03T08:16:21.507Z,398
2023-03-03T08:17:22.254Z,397
2023-03-03T08:18:21.883Z,388
2023-03-03T08:19:21.278Z,393
2023-03-03T08:20:21.891Z,385
2023-03-03T08:21:21.467Z,386
2023-03-03T08:22:21.824Z,383
2023-03-03T08:23:22.380Z,390
2023-03-03T08:24:22.400Z,381
2023-03-03T08:25:22.241Z,393
2023-03-03T08:26:21.587Z,388
2023-03-03T08:27:22.309Z,386
2023-03-03T08:28:22.046Z,384
2023-03-03T08:29:22.088Z,377
2023-03-03T08:30:21.892Z,382
2023-03-03T08:31:38.469Z,391
2023-03-03T08:32:21.820Z,385
2023-03-03T08:33:21.900Z,394
2023-03-03T08:34:21.307Z,392
2023-03-03T08:35:21.469Z,393
2023-03-03T08:36:21.709Z,392
2023-03-03T08:38:21.622Z,394
2023-03-03T08:39:22.171Z,381
2023-03-03T08:40:21.710Z,372
2023-03-03T08:41:22.355Z,377
2023-03-03T08:43:21.876Z,372
2023-03-03T08:44:21.742Z,384
2023-03-03T08:45:21.814Z,387
2023-03-03T08:46:21.349Z,383
2023-03-03T08:47:21.772Z,391
2023-03-03T08:48:21.917Z,388
2023-03-03T08:49:21.312Z,382
2023-03-03T08:50:21.946Z,387
2023-03-03T08:51:22.055Z,396
2023-03-03T08:52:21.170Z,389
2023-03-03T08:53:21.652Z,380
2023-03-03T08:54:21.838Z,379
2023-03-03T08:55:21.961Z,384
2023-03-03T08:56:21.297Z,379
2023-03-03T08:57:21.931Z,388
2023-03-03T08:58:23.823Z,382
2023-03-03T08:59:21.882Z,383
2023-03-03T09:00:22.427Z,384
2023-03-03T09:01:22.827Z,388
2023-03-03T09:03:21.779Z,391
2023-03-03T09:04:21.699Z,389
2023-03-03T09:05:21.550Z,390
2023-03-03T09:06:22.488Z,387
2023-03-03T09:07:22.226Z,398
2023-03-03T09:08:21.809Z,406
2023-03-03T09:09:21.968Z,409
2023-03-03T09:10:21.988Z,400
2023-03-03T09:11:22.150Z,390
2023-03-03T09:12:22.141Z,393
2023-03-03T09:13:22.288Z,389
2023-03-03T09:14:22.129Z,390
2023-03-03T09:15:21.984Z,389
2023-03-03T09:17:22.143Z,402
2023-03-03T09:18:26.831Z,387
2023-03-03T09:19:21.162Z,389
2023-03-03T09:21:21.517Z,392
2023-03-03T09:22:21.796Z,398
2023-03-03T09:23:21.670Z,392
2023-03-03T09:24:22.175Z,397
2023-03-03T09:25:22.216Z,388
2023-03-03T09:26:21.999Z,389
2023-03-03T09:27:22.418Z,390
2023-03-03T09:28:21.389Z,382
2023-03-03T09:29:22.032Z,387
2023-03-03T09:30:22.098Z,381
2023-03-03T09:31:22.303Z,380
2023-03-03T09:32:22.242Z,387
2023-03-03T09:33:22.091Z,384
2023-03-03T09:34:21.747Z,388
2023-03-03T09:35:22.520Z,395
2023-03-03T09:36:30.228Z,388
2023-03-03T09:37:21.710Z,390
2023-03-03T09:38:21.936Z,386
2023-03-03T09:39:22.135Z,387
2023-03-03T09:40:22.066Z,386
2023-03-03T09:41:22.018Z,392
2023-03-03T09:42:22.105Z,379
2023-03-03T09:43:21.974Z,392
2023-03-03T09:44:21.387Z,391
2023-03-03T09:45:22.709Z,385
2023-03-03T09:46:22.226Z,379
2023-03-03T09:47:22.376Z,383
2023-03-03T09:48:21.664Z,395
2023-03-03T09:49:23.413Z,404
2023-03-03T09:50:21.876Z,387
2023-03-03T09:51:21.500Z,381
2023-03-03T09:52:21.845Z,394
2023-03-03T09:53:22.401Z,387
2023-03-03T09:54:22.208Z,391
2023-03-03T09:55:25.168Z,390
2023-03-03T09:56:22.181Z,382
2023-03-03T09:57:21.384Z,383
2023-03-03T09:58:21.532Z,387
2023-03-03T09:59:22.146Z,389
2023-03-03T10:00:22.430Z,387
2023-03-03T10:01:21.878Z,391
2023-03-03T10:02:22.171Z,401
2023-03-03T10:03:22.273Z,394
2023-03-03T10:04:21.861Z,391
2023-03-03T10:05:21.574Z,386
2023-03-03T10:06:22.215Z,385
2023-03-03T10:07:22.046Z,399
2023-03-03T10:08:21.828Z,405
2023-03-03T10:09:22.209Z,391
2023-03-03T10:10:22.511Z,394
2023-03-03T10:11:21.880Z,380
2023-03-03T10:12:22.105Z,374
2023-03-03T10:13:21.730Z,381
2023-03-03T10:14:22.188Z,393
2023-03-03T10:15:22.121Z,392
2023-03-03T10:16:22.105Z,400
2023-03-03T10:17:21.666Z,398
2023-03-03T10:18:22.271Z,393
2023-03-03T10:19:22.246Z,397
2023-03-03T10:20:22.878Z,390
2023-03-03T10:21:22.163Z,387
2023-03-03T10:22:22.179Z,380
2023-03-03T10:23:21.748Z,378
2023-03-03T10:24:22.172Z,380
2023-03-03T10:25:21.692Z,389
2023-03-03T10:26:29.005Z,388
2023-03-03T10:27:22.234Z,389
2023-03-03T10:28:21.628Z,384
2023-03-03T10:29:22.556Z,392
2023-03-03T10:30:38.426Z,378
2023-03-03T10:31:28.381Z,391
2023-03-03T10:32:22.828Z,380
2023-03-03T10:33:22.593Z,385
2023-03-03T10:34:21.971Z,392
2023-03-03T10:37:21.793Z,401
2023-03-03T10:38:21.863Z,391
2023-03-03T10:39:22.056Z,383
2023-03-03T10:40:22.310Z,392
2023-03-03T10:41:21.962Z,393
2023-03-03T10:42:21.674Z,388
2023-03-03T10:43:31.045Z,386
2023-03-03T10:44:21.905Z,395
2023-03-03T10:45:22.268Z,393
2023-03-03T10:46:21.496Z,390
2023-03-03T10:47:22.396Z,383
2023-03-03T10:48:22.144Z,389
2023-03-03T10:50:22.519Z,389
2023-03-03T10:51:22.099Z,395
2023-03-03T10:52:22.082Z,388
2023-03-03T10:53:21.960Z,389
2023-03-03T10:54:21.811Z,384
2023-03-03T10:55:21.861Z,391
2023-03-03T10:56:21.662Z,395
2023-03-03T10:57:21.844Z,391
2023-03-03T10:58:22.030Z,393
2023-03-03T10:59:22.502Z,389
2023-03-03T11:00:22.930Z,379
2023-03-03T11:01:24.489Z,382
2023-03-03T11:02:21.855Z,388
2023-03-03T11:03:21.275Z,395
2023-03-03T11:04:22.489Z,400
2023-03-03T11:05:22.949Z,395
2023-03-03T11:06:23.099Z,394
2023-03-03T11:07:22.307Z,404
2023-03-03T11:08:22.752Z,398
2023-03-03T11:09:22.453Z,395
2023-03-03T11:10:22.092Z,393
2023-03-03T11:11:21.601Z,390
2023-03-03T11:12:22.775Z,394
2023-03-03T11:13:22.067Z,397
2023-03-03T11:15:22.211Z,395
2023-03-03T11:16:21.869Z,387
2023-03-03T11:17:22.331Z,388
2023-03-03T11:18:25.774Z,385
2023-03-03T11:19:22.223Z,391
2023-03-03T11:20:22.449Z,393
2023-03-03T11:22:21.748Z,395
2023-03-03T11:24:24.113Z,386
2023-03-03T11:25:22.708Z,394
2023-03-03T11:26:21.728Z,398
2023-03-03T11:27:23.174Z,399
2023-03-03T11:28:22.470Z,397
2023-03-03T11:29:21.844Z,399
2023-03-03T11:30:22.021Z,395
2023-03-03T11:31:21.569Z,394
2023-03-03T11:32:22.189Z,396
2023-03-03T11:33:21.618Z,401
2023-03-03T11:34:21.425Z,393
2023-03-03T11:36:21.375Z,391
2023-03-03T11:37:21.366Z,392
2023-03-03T11:38:21.722Z,388
2023-03-03T11:39:22.209Z,382
2023-03-03T11:40:21.735Z,385
2023-03-03T11:41:21.832Z,386
2023-03-03T11:42:23.625Z,385
2023-03-03T11:43:35.603Z,386
2023-03-03T11:44:21.751Z,385
2023-03-03T11:45:22.804Z,388
2023-03-03T11:46:21.691Z,386
2023-03-03T11:47:21.823Z,393
2023-03-03T11:48:21.476Z,400
2023-03-03T11:49:21.495Z,390
2023-03-03T11:50:22.192Z,396
2023-03-03T11:51:20.915Z,390
2023-03-03T11:52:21.643Z,384
2023-03-03T11:53:21.485Z,379
2023-03-03T11:54:21.495Z,380
2023-03-03T11:55:30.131Z,390
2023-03-03T11:56:21.390Z,384
2023-03-03T11:57:29.917Z,382
2023-03-03T11:58:21.866Z,385
2023-03-03T11:59:22.084Z,393
2023-03-03T12:00:23.043Z,389
2023-03-03T12:01:35.600Z,388
2023-03-03T12:02:21.876Z,382
2023-03-03T12:04:22.147Z,385
2023-03-03T12:06:21.600Z,374
2023-03-03T12:07:22.227Z,378
2023-03-03T12:08:21.443Z,389
2023-03-03T12:09:21.668Z,366
2023-03-03T12:10:22.757Z,369
2023-03-03T12:11:35.726Z,377
2023-03-03T12:12:22.208Z,376
2023-03-03T12:13:21.881Z,382
2023-03-03T12:14:21.844Z,379
2023-03-03T12:15:36.150Z,385
2023-03-03T12:16:22.405Z,381
2023-03-03T12:17:21.887Z,370
2023-03-03T12:19:22.054Z,383
2023-03-03T12:20:21.814Z,390
2023-03-03T12:21:22.316Z,386
2023-03-03T12:22:21.292Z,375
2023-03-03T12:23:22.087Z,379
2023-03-03T12:24:22.222Z,384
2023-03-03T12:25:21.645Z,376
2023-03-03T12:26:21.665Z,382
2023-03-03T12:27:21.870Z,383
2023-03-03T12:28:21.150Z,368
2023-03-03T12:29:21.873Z,376
2023-03-03T12:31:44.187Z,383
2023-03-03T12:32:22.278Z,386
2023-03-03T12:33:22.051Z,382
2023-03-03T12:34:21.801Z,376
2023-03-03T12:35:22.642Z,379
2023-03-03T12:36:21.965Z,382
2023-03-03T12:38:23.147Z,387
2023-03-03T12:40:22.133Z,392
2023-03-03T12:42:23.025Z,384
2023-03-03T12:43:21.859Z,390
2023-03-03T12:44:21.634Z,394
2023-03-03T12:45:22.164Z,397
2023-03-03T12:46:28.502Z,394
2023-03-03T12:47:23.344Z,383
2023-03-03T12:48:21.428Z,378
2023-03-03T12:49:21.503Z,375
2023-03-03T12:50:21.879Z,382
2023-03-03T12:51:21.771Z,390
2023-03-03T12:52:21.748Z,385
2023-03-03T12:53:21.488Z,383
2023-03-03T12:54:22.021Z,388
2023-03-03T12:55:21.684Z,387
2023-03-03T12:56:22.064Z,375
2023-03-03T12:58:22.134Z,391
2023-03-03T12:59:22.023Z,388
2023-03-03T13:00:23.479Z,385
2023-03-03T13:01:22.521Z,388
2023-03-03T13:02:21.718Z,394
2023-03-03T13:03:22.969Z,391
2023-03-03T13:04:21.872Z,387
2023-03-03T13:05:22.728Z,390
2023-03-03T13:06:21.485Z,395
2023-03-03T13:07:21.983Z,394
2023-03-03T13:09:22.122Z,393
2023-03-03T13:10:21.492Z,391
2023-03-03T13:11:22.680Z,378
2023-03-03T13:12:22.079Z,375
2023-03-03T13:14:23.052Z,395
2023-03-03T13:16:31.971Z,386
2023-03-03T13:17:22.455Z,380
2023-03-03T13:18:21.921Z,382
2023-03-03T13:19:21.534Z,383
2023-03-03T13:20:22.522Z,378
2023-03-03T13:21:22.050Z,376
2023-03-03T13:22:21.798Z,386
2023-03-03T13:23:21.605Z,391
2023-03-03T13:24:22.545Z,384
2023-03-03T13:25:22.551Z,383
2023-03-03T13:26:21.424Z,393
2023-03-03T13:28:21.913Z,386
2023-03-03T13:29:22.351Z,384
2023-03-03T13:30:22.098Z,378
2023-03-03T13:31:21.803Z,386
2023-03-03T13:32:22.005Z,398
2023-03-03T13:33:21.375Z,399
2023-03-03T13:34:21.737Z,386
2023-03-03T13:35:22.512Z,393
2023-03-03T13:37:21.348Z,397
2023-03-03T13:38:22.098Z,385
2023-03-03T13:39:21.481Z,389
2023-03-03T13:40:22.681Z,388
2023-03-03T13:41:22.106Z,388
2023-03-03T13:42:21.986Z,381
2023-03-03T13:43:22.042Z,383
2023-03-03T13:44:22.470Z,386
2023-03-03T13:45:21.993Z,389
2023-03-03T13:46:21.404Z,386
2023-03-03T13:47:22.171Z,387
2023-03-03T13:48:21.813Z,386
2023-03-03T13:49:21.932Z,390
2023-03-03T13:50:22.237Z,384
2023-03-03T13:51:22.269Z,382
2023-03-03T13:52:21.914Z,386
2023-03-03T13:53:21.543Z,392
2023-03-03T13:54:21.779Z,398
2023-03-03T13:55:21.661Z,387
2023-03-03T13:56:21.937Z,388
2023-03-03T13:57:21.358Z,394
2023-03-03T13:58:22.073Z,386
2023-03-03T14:00:23.291Z,380
2023-03-03T14:01:22.863Z,381
2023-03-03T14:02:21.517Z,380
2023-03-03T14:03:22.238Z,382
2023-03-03T14:04:22.551Z,371
2023-03-03T14:05:22.306Z,374
2023-03-03T14:06:22.243Z,379
2023-03-03T14:08:26.954Z,389
2023-03-03T14:09:21.894Z,379
2023-03-03T14:11:22.328Z,383
2023-03-03T14:12:21.860Z,389
2023-03-03T14:14:26.722Z,381
2023-03-03T14:15:22.556Z,375
2023-03-03T14:16:26.871Z,378
2023-03-03T14:17:22.855Z,384
2023-03-03T14:18:21.707Z,387
2023-03-03T14:19:21.820Z,383
2023-03-03T14:20:22.539Z,379
2023-03-03T14:21:21.716Z,389
2023-03-03T14:22:21.748Z,390
2023-03-03T14:23:22.378Z,394
2023-03-03T14:24:22.650Z,391
2023-03-03T14:25:22.422Z,380
2023-03-03T14:26:21.758Z,385
2023-03-03T14:27:21.670Z,382
2023-03-03T14:28:21.343Z,388
2023-03-03T14:29:21.595Z,387
2023-03-03T14:30:22.544Z,385
2023-03-03T14:32:21.361Z,392
2023-03-03T14:33:21.862Z,394
2023-03-03T14:34:35.922Z,389
2023-03-03T14:35:22.482Z,396
2023-03-03T14:36:21.733Z,399
2023-03-03T14:37:21.374Z,399
2023-03-03T14:38:22.044Z,406
2023-03-03T14:40:22.391Z,404
2023-03-03T14:41:22.386Z,399
2023-03-03T14:42:36.494Z,400
2023-03-03T14:43:21.577Z,406
2023-03-03T14:44:21.934Z,408
2023-03-03T14:45:29.507Z,400
2023-03-03T14:46:21.751Z,396
2023-03-03T14:47:21.894Z,408
2023-03-03T14:48:21.472Z,414
2023-03-03T14:49:21.669Z,412
2023-03-03T14:50:22.829Z,411
2023-03-03T14:51:22.458Z,407
2023-03-03T14:52:22.797Z,404
2023-03-03T14:53:22.196Z,395
2023-03-03T14:54:22.424Z,396
2023-03-03T14:55:22.072Z,402
2023-03-03T14:56:22.619Z,411
2023-03-03T14:57:22.628Z,405
2023-03-03T14:58:22.264Z,399
2023-03-03T14:59:22.406Z,404
2023-03-03T15:00:45.316Z,398
2023-03-03T15:01:23.742Z,410
2023-03-03T15:02:22.210Z,417